Terminal Aerodrome Forecast
Issued by NWS Albany, NY

Home | Current Version | Previous Version | Text Only | Print | Product List | Glossary On
Versions: 1 2 3 4 5 6 7 8 9 10 11 12 13 14 15
000
FTUS41 KALY 171722
TAFALB
TAF
KALB 171722Z 1718/1818 VRB06KT P6SM FEW050 SCT200
     FM180300 VRB05KT P6SM BKN050 PROB30 1808/1812 4SM -SHRA OVC025
     FM181200 17005KT 6SM -SHRA BR OVC015
      TEMPO 1812/1816 1 1/2SM -SHRA OVC007=

USA.gov is the U.S. government's official web portal to all federal, state and local government web resources and services.